Time;durP1;ratioP1;P1;durP2;ratioP2;P2;SDS_P1;SDS_P2;PMS_P1;PMS_P2;Temp;Humidity;BMP_temperature;BMP_pressure;BME280_temperature;BME280_humidity;BME280_pressure;Samples;Min_cycle;Max_cycle;Signal;HPM_P1;HPM_P2
2022/04/16 00:01:36;;;;;;;8.00;5.03;;;8.80;99.90;;;;;;6714609;88;20244;-80
2022/04/16 00:11:38;;;;;;;6.95;4.87;;;9.10;99.90;;;;;;6697675;89;20190;-79
2022/04/16 00:21:39;;;;;;;10.25;5.60;;;9.00;99.90;;;;;;6646870;89;20193;-80
2022/04/16 00:31:39;;;;;;;8.75;4.82;;;8.60;99.90;;;;;;6659630;89;20173;-81
2022/04/16 00:41:40;;;;;;;9.82;5.22;;;8.70;99.90;;;;;;6622008;89;20179;-81
2022/04/16 00:51:45;;;;;;;9.73;5.83;;;8.80;99.90;;;;;;6636919;88;20197;-79
2022/04/16 01:01:46;;;;;;;9.63;5.70;;;8.50;99.90;;;;;;6643713;88;20498;-80
2022/04/16 01:11:46;;;;;;;7.97;5.20;;;8.40;99.90;;;;;;6643801;88;20203;-80
2022/04/16 01:21:47;;;;;;;7.40;4.80;;;8.30;99.90;;;;;;6657138;88;20173;-79
2022/04/16 01:31:48;;;;;;;9.52;5.28;;;8.30;99.90;;;;;;6732539;88;20166;-80
2022/04/16 01:41:49;;;;;;;9.25;5.55;;;8.10;99.90;;;;;;6727505;88;20975;-79
2022/04/16 01:51:50;;;;;;;7.53;5.22;;;7.80;99.90;;;;;;6733272;88;20193;-80
2022/04/16 02:01:50;;;;;;;7.65;5.30;;;7.80;99.90;;;;;;6692144;77;20200;-78
2022/04/16 02:11:51;;;;;;;8.98;5.53;;;7.70;99.90;;;;;;6669529;88;20191;-78
2022/04/16 02:21:51;;;;;;;7.77;5.17;;;7.70;99.90;;;;;;6695323;88;20192;-79
2022/04/16 02:31:53;;;;;;;7.62;5.22;;;7.60;99.90;;;;;;6752773;88;21095;-79
2022/04/16 02:41:54;;;;;;;9.07;5.32;;;7.50;99.90;;;;;;6743574;88;20235;-79
2022/04/16 02:51:55;;;;;;;8.27;5.70;;;7.40;99.90;;;;;;6743220;88;20819;-79
2022/04/16 03:01:55;;;;;;;8.50;5.90;;;7.40;99.90;;;;;;6723745;88;20328;-78
2022/04/16 03:11:56;;;;;;;9.48;5.97;;;7.30;99.90;;;;;;6740358;88;20256;-78
2022/04/16 03:21:56;;;;;;;9.90;5.80;;;7.00;99.90;;;;;;6738484;88;20195;-79
2022/04/16 03:31:57;;;;;;;10.50;6.18;;;6.90;99.90;;;;;;6742915;88;20545;-79
2022/04/16 03:41:58;;;;;;;12.10;5.90;;;6.80;99.90;;;;;;6742588;88;20191;-79
2022/04/16 03:51:58;;;;;;;8.88;5.60;;;6.80;99.90;;;;;;6738820;88;20193;-79
2022/04/16 04:01:59;;;;;;;9.35;5.85;;;6.60;99.90;;;;;;6740687;87;20203;-79
2022/04/16 04:11:59;;;;;;;10.10;6.18;;;6.60;99.90;;;;;;6707505;88;20206;-79
2022/04/16 04:22:00;;;;;;;8.90;6.15;;;6.50;99.90;;;;;;6733664;88;20698;-79
2022/04/16 04:32:00;;;;;;;10.57;6.32;;;6.60;99.90;;;;;;6740814;88;20207;-79
2022/04/16 04:42:01;;;;;;;9.93;6.30;;;6.90;99.90;;;;;;6740271;88;20797;-79
2022/04/16 04:52:01;;;;;;;8.95;5.85;;;6.90;99.90;;;;;;6740479;88;20543;-78
2022/04/16 05:02:02;;;;;;;10.43;6.60;;;6.60;99.90;;;;;;6741231;88;20235;-79
2022/04/16 05:12:03;;;;;;;11.40;6.30;;;6.50;99.90;;;;;;6734990;88;20612;-78
2022/04/16 05:22:04;;;;;;;10.00;6.60;;;6.60;99.90;;;;;;6740967;88;20287;-79
2022/04/16 05:32:06;;;;;;;9.98;6.68;;;6.60;99.90;;;;;;6741447;88;20809;-78
2022/04/16 05:42:08;;;;;;;11.63;7.15;;;6.60;99.90;;;;;;6740843;88;20258;-78
2022/04/16 05:52:09;;;;;;;12.45;7.60;;;6.60;99.90;;;;;;6741151;88;20187;-79
2022/04/16 06:02:12;;;;;;;13.00;7.75;;;6.90;99.90;;;;;;6736977;88;20843;-79
2022/04/16 06:12:13;;;;;;;11.98;7.80;;;7.20;99.90;;;;;;6742072;88;20198;-79
2022/04/16 06:22:13;;;;;;;11.60;7.50;;;7.50;99.90;;;;;;6759998;88;20540;-78
2022/04/16 06:32:14;;;;;;;13.30;7.70;;;7.80;99.90;;;;;;6743029;88;20209;-78
2022/04/16 06:42:15;;;;;;;11.75;7.20;;;8.20;99.90;;;;;;6744319;88;20199;-79
2022/04/16 06:52:19;;;;;;;10.82;6.87;;;8.60;99.90;;;;;;6739292;88;20220;-78
2022/04/16 07:02:19;;;;;;;10.90;6.18;;;9.30;99.90;;;;;;6742303;88;20239;-79
2022/04/16 07:12:20;;;;;;;11.45;6.25;;;10.00;99.90;;;;;;6722309;88;20283;-79
2022/04/16 07:22:21;;;;;;;11.05;7.07;;;10.80;99.90;;;;;;6743955;88;20204;-79
2022/04/16 07:32:21;;;;;;;11.20;6.62;;;11.10;99.90;;;;;;6744315;88;20286;-79
2022/04/16 07:42:25;;;;;;;13.35;6.50;;;11.50;99.90;;;;;;6738617;88;20243;-79
2022/04/16 07:52:28;;;;;;;11.85;6.93;;;12.70;99.90;;;;;;6741831;88;20220;-79
2022/04/16 08:02:28;;;;;;;11.00;6.55;;;13.10;99.90;;;;;;6744158;88;20181;-79
2022/04/16 08:12:29;;;;;;;11.77;6.35;;;13.00;99.90;;;;;;6722455;88;20253;-79
2022/04/16 08:22:32;;;;;;;8.45;5.05;;;13.30;99.90;;;;;;6725465;88;20613;-79
2022/04/16 08:32:36;;;;;;;6.78;4.30;;;14.00;99.90;;;;;;6739812;88;20197;-79
2022/04/16 08:42:37;;;;;;;7.32;4.70;;;14.60;99.90;;;;;;6727811;88;20707;-79
2022/04/16 08:52:39;;;;;;;7.15;4.37;;;15.10;99.90;;;;;;6743115;88;20771;-78
2022/04/16 09:02:53;;;;;;;10.80;4.10;;;15.50;99.90;;;;;;6743142;88;20563;-79
2022/04/16 09:12:57;;;;;;;5.40;3.70;;;15.40;99.90;;;;;;6728472;88;20206;-81
2022/04/16 09:22:58;;;;;;;5.65;3.80;;;16.30;99.90;;;;;;6747817;88;20290;-80
2022/04/16 09:33:00;;;;;;;5.85;3.00;;;16.30;98.60;;;;;;6671624;88;20196;-79
2022/04/16 09:43:05;;;;;;;5.05;2.90;;;17.20;97.50;;;;;;6743001;88;20846;-81
2022/04/16 09:53:06;;;;;;;;;;;16.90;95.10;;;;;;6743121;88;20207;-79
2022/04/16 10:03:07;;;;;;;4.20;2.10;;;17.30;94.60;;;;;;6744034;88;20090;-80
2022/04/16 10:13:12;;;;;;;3.03;1.83;;;16.90;95.00;;;;;;6751163;88;20168;-78
2022/04/16 10:23:23;;;;;;;2.80;1.70;;;17.00;93.20;;;;;;6759656;88;20242;-79
2022/04/16 10:33:27;;;;;;;8.20;1.80;;;17.20;92.00;;;;;;6745740;88;20196;-78
2022/04/16 10:43:34;;;;;;;4.43;2.35;;;16.40;91.00;;;;;;6745266;88;20180;-78
2022/04/16 10:53:36;;;;;;;3.08;2.20;;;16.50;91.30;;;;;;6745167;88;20193;-78
2022/04/16 11:03:46;;;;;;;3.78;1.85;;;17.40;91.30;;;;;;6744004;88;20199;-79
2022/04/16 11:13:47;;;;;;;2.95;1.85;;;17.40;89.90;;;;;;6744547;88;20245;-79
2022/04/16 11:23:50;;;;;;;3.72;2.00;;;17.70;90.60;;;;;;6744952;88;20667;-80
2022/04/16 11:44:10;;;;;;;2.50;1.80;;;19.00;87.00;;;;;;6744922;88;20176;-79
2022/04/16 11:54:10;;;;;;;3.10;1.50;;;20.70;80.40;;;;;;6744530;88;20280;-78
2022/04/16 12:04:11;;;;;;;2.37;1.60;;;19.50;80.00;;;;;;6744175;88;20201;-79
2022/04/16 12:14:17;;;;;;;2.58;1.58;;;19.50;78.50;;;;;;6744038;88;20291;-79
2022/04/16 12:24:28;;;;;;;2.30;1.55;;;21.40;74.60;;;;;;6743559;88;20816;-79
2022/04/16 12:34:29;;;;;;;2.55;1.60;;;21.30;73.10;;;;;;6745971;88;20214;-79
2022/04/16 12:44:29;;;;;;;2.65;1.50;;;21.90;72.30;;;;;;6760107;88;20241;-79
2022/04/16 12:54:30;;;;;;;2.50;1.40;;;21.80;68.80;;;;;;6760732;88;20250;-78
2022/04/16 13:04:30;;;;;;;3.15;1.50;;;21.20;65.70;;;;;;6759448;88;20219;-79
2022/04/16 13:14:31;;;;;;;2.17;1.27;;;20.40;66.50;;;;;;6742568;88;20191;-78
2022/04/16 13:24:32;;;;;;;1.90;1.10;;;21.00;62.70;;;;;;6741687;88;20342;-77
2022/04/16 13:34:33;;;;;;;2.78;0.98;;;20.50;61.30;;;;;;6741856;88;20323;-78
2022/04/16 13:44:33;;;;;;;2.37;1.10;;;22.20;59.10;;;;;;6744276;88;20188;-78
2022/04/16 13:54:34;;;;;;;1.62;0.88;;;23.10;54.00;;;;;;6744674;88;20230;-79
2022/04/16 14:14:53;;;;;;;1.70;0.80;;;20.70;48.80;;;;;;6745565;88;20652;-78
2022/04/16 14:24:54;;;;;;;3.15;0.85;;;20.20;50.90;;;;;;6739461;88;20205;-78
2022/04/16 14:34:55;;;;;;;2.37;0.80;;;21.20;49.50;;;;;;6748876;88;20205;-78
2022/04/16 14:44:56;;;;;;;2.22;0.73;;;22.50;47.70;;;;;;6737691;88;20198;-78
2022/04/16 14:54:57;;;;;;;2.72;0.80;;;22.50;47.90;;;;;;6737974;88;20250;-77
2022/04/16 15:04:57;;;;;;;1.50;0.90;;;22.10;48.30;;;;;;6736565;88;20664;-78
2022/04/16 15:14:58;;;;;;;2.50;0.90;;;22.00;48.90;;;;;;6736845;88;20259;-78
2022/04/16 15:24:58;;;;;;;2.00;0.80;;;21.40;49.70;;;;;;6737158;88;20246;-77
2022/04/16 15:34:59;;;;;;;3.30;1.00;;;21.70;49.30;;;;;;6738699;88;20214;-79
2022/04/16 15:44:59;;;;;;;1.25;0.70;;;21.20;47.80;;;;;;6739019;88;20201;-78
2022/04/16 15:55:01;;;;;;;2.95;0.88;;;21.10;48.30;;;;;;6738199;88;20180;-78
2022/04/16 16:05:07;;;;;;;2.12;0.70;;;20.50;50.20;;;;;;6734626;88;20659;-78
2022/04/16 16:15:08;;;;;;;2.03;0.62;;;20.70;49.10;;;;;;6737776;88;20249;-78
2022/04/16 16:25:09;;;;;;;1.50;0.80;;;20.30;46.60;;;;;;6736085;88;20652;-79
2022/04/16 16:35:11;;;;;;;2.12;0.60;;;19.10;48.50;;;;;;6735469;88;20196;-78
2022/04/16 16:45:12;;;;;;;2.47;0.90;;;18.40;48.20;;;;;;6709939;88;20201;-77
2022/04/16 16:55:12;;;;;;;1.50;0.60;;;18.10;48.30;;;;;;6695364;88;20225;-78
2022/04/16 17:05:13;;;;;;;1.98;0.60;;;18.20;47.10;;;;;;6736297;88;20211;-78
2022/04/16 17:25:34;;;;;;;2.20;0.60;;;17.80;47.50;;;;;;6734503;88;20222;-77
2022/04/16 17:35:34;;;;;;;2.03;0.60;;;17.30;47.70;;;;;;6734845;88;20593;-77
2022/04/16 17:45:35;;;;;;;1.55;0.70;;;16.90;47.80;;;;;;6734257;88;20496;-77
2022/04/16 17:55:36;;;;;;;3.40;1.00;;;16.60;48.70;;;;;;6737809;88;20604;-77
2022/04/16 18:05:37;;;;;;;3.10;1.50;;;16.10;48.40;;;;;;6754300;88;20252;-78
2022/04/16 18:15:38;;;;;;;1.90;1.20;;;15.80;49.20;;;;;;6738961;88;20196;-80
2022/04/16 18:25:39;;;;;;;3.17;1.20;;;15.50;49.30;;;;;;6742140;88;20208;-79
2022/04/16 18:35:40;;;;;;;1.92;0.80;;;15.30;49.80;;;;;;6741609;88;20573;-77
2022/04/16 18:45:40;;;;;;;3.55;0.70;;;15.10;50.30;;;;;;6737152;88;20662;-80
2022/04/16 18:55:41;;;;;;;3.25;1.02;;;14.70;50.20;;;;;;6737989;88;20588;-78
2022/04/16 19:16:01;;;;;;;2.33;1.10;;;14.30;52.30;;;;;;6670984;89;20229;-80
2022/04/16 19:26:01;;;;;;;3.87;1.20;;;14.00;52.60;;;;;;6671895;88;20206;-79
2022/04/16 19:36:02;;;;;;;3.08;1.12;;;13.90;51.30;;;;;;6758682;88;20205;-79
2022/04/16 19:46:03;;;;;;;2.07;0.90;;;13.60;51.90;;;;;;6761131;88;20206;-79
2022/04/16 19:56:04;;;;;;;2.90;0.95;;;13.50;51.10;;;;;;6673512;88;20539;-80
2022/04/16 20:06:05;;;;;;;1.25;0.75;;;13.20;52.20;;;;;;6759264;88;20267;-79
2022/04/16 20:16:05;;;;;;;2.10;1.00;;;13.00;51.70;;;;;;6759752;88;20222;-79
2022/04/16 20:26:06;;;;;;;1.90;0.77;;;12.90;50.40;;;;;;6757978;88;20511;-79
2022/04/16 20:36:07;;;;;;;2.78;1.50;;;12.70;50.80;;;;;;6757714;88;20231;-79
2022/04/16 20:46:07;;;;;;;2.12;1.00;;;12.50;52.40;;;;;;6744466;88;20252;-79
2022/04/16 20:56:11;;;;;;;3.07;1.20;;;12.40;52.10;;;;;;6735205;88;20272;-77
2022/04/16 21:06:11;;;;;;;3.65;1.20;;;12.40;51.70;;;;;;6735717;88;20215;-77
2022/04/16 21:16:12;;;;;;;2.35;1.10;;;12.00;53.70;;;;;;6735241;88;20266;-77
2022/04/16 21:26:12;;;;;;;2.75;1.40;;;11.90;53.40;;;;;;6736093;88;20677;-77
2022/04/16 21:36:13;;;;;;;4.53;1.83;;;11.80;54.20;;;;;;6734146;88;20203;-77
2022/04/16 21:46:13;;;;;;;2.60;1.40;;;11.60;55.00;;;;;;6738319;88;20724;-77
2022/04/16 21:56:14;;;;;;;1.80;0.93;;;11.60;55.60;;;;;;6760242;88;20413;-77
2022/04/16 22:06:15;;;;;;;3.33;1.27;;;11.30;55.70;;;;;;6748518;88;20205;-77
2022/04/16 22:16:16;;;;;;;2.42;1.25;;;11.00;56.80;;;;;;6769424;88;20707;-78
2022/04/16 22:26:17;;;;;;;5.95;1.70;;;10.60;58.30;;;;;;6745272;88;20226;-77
2022/04/16 22:36:18;;;;;;;2.50;1.23;;;10.40;59.20;;;;;;6759703;88;20686;-77
2022/04/16 22:46:20;;;;;;;3.22;1.70;;;10.40;60.10;;;;;;6758321;88;20232;-77
2022/04/16 22:56:21;;;;;;;5.47;2.20;;;10.40;60.50;;;;;;6759083;88;20171;-76
2022/04/16 23:06:22;;;;;;;3.85;1.80;;;10.20;61.70;;;;;;6759820;88;20216;-78
2022/04/16 23:16:38;;;;;;;5.90;1.87;;;10.10;62.00;;;;;;6759595;88;20202;-79
2022/04/16 23:26:38;;;;;;;4.17;1.80;;;9.90;63.20;;;;;;6744091;88;20205;-78
2022/04/16 23:36:39;;;;;;;3.33;1.83;;;9.80;63.50;;;;;;6759252;88;20192;-78
2022/04/16 23:46:55;;;;;;;4.07;1.98;;;9.80;64.00;;;;;;6759058;88;20202;-78
2022/04/16 23:56:55;;;;;;;4.30;1.98;;;9.60;65.20;;;;;;6758828;88;20172;-78
